Terminal Aerodrome Forecast
Issued by NWS

Home | Current Version | Previous Version | Text Only | Print | Product List | Glossary On
Versions: 1 2 3 4 5 6 7 8 9 10 11 12 13 14 15 16
386
FTUS44 KTSA 241137
TAFFYV
TAF
KFYV 241137Z 2412/2512 18016G25KT P6SM VCSH SCT060 BKN200
     FM241400 18015G24KT P6SM VCSH BKN050
      TEMPO 2419/2422 3SM TSRA OVC025CB
     FM250600 24006KT P6SM VCTS BKN060CB=

USA.gov is the U.S. government's official web portal to all federal, state and local government web resources and services.